Portada
METAR-TAF:

METAR-TAF

Aeropuertos :

Aeropuerto Internacional de Nador

Nador, Marruecos

latitud: 34-59-20N, longitud: 003-01-42W, altitud: 175 m

Observación

El informe se hizo hace 1 hora y 4 minutos, a las 16:00 UTC
Viento 16 kt del noreste, variando entre norte y este-noreste
Temperatura 23°C
Humedad 50%
Presión 1020 hPa
Visibilidad 10 km o más
sin nubes por debajo de 1500 m y sin presencia de cumulonimbus.

METAR: GMMW 261600Z 04016KT 010V070 CAVOK 23/12 Q1020 NOSIG

Hora: 18:04 (17:04 UTC)

Pronóstico

El informe se hizo hace 6 horas y 4 minutos, a las 11:00 UTC
Pronóstico válido del 26 a las 12 UTC al 27 a las 18 UTC
Viento 14 kt del noreste
Visibilidad 10 km o más
sin nubes por debajo de 1500 m y sin presencia de cumulonimbus.
Probabilidad 30%
del 27 a las 00 UTC al 27 a las 06 UTC
Visibilidad: 4000 m
neblina

TAF: GMMW 261100Z 2612/2718 04014KT CAVOK PROB30 2700/2706 4000 BR

Observaciones y pronósticos meteorológicos de más de 4000 aeropuertos (mensajes METAR y TAF).

Los puntos amarillos y rojos representan las estaciones disponibles.

Ponga el ratón en el punto deseado para ver el nombre de la estación.

Haga clic para ver las observaciones y los pronósticos meteorológicos.

Para cambiar el mapa : haga clic en los botones verdes con una cruz de color negro para hacer un zoom, en el botón verde con un guión para alejar o en las flechas verdes para mapas adyacentes.


METAR-TAF: